createdAt,value
2022-11-09T00:00:41.758Z,60.94
2022-11-09T00:03:09.199Z,61.08
2022-11-09T00:05:36.635Z,61.11
2022-11-09T00:08:06.293Z,61.15
2022-11-09T00:10:35.062Z,61.07
2022-11-09T00:13:02.567Z,61.27
2022-11-09T00:15:30.131Z,60.87
2022-11-09T00:17:57.581Z,60.84
2022-11-09T00:20:25.046Z,60.94
2022-11-09T00:22:52.501Z,60.96
2022-11-09T00:25:19.941Z,61.17
2022-11-09T00:27:48.725Z,61.04
2022-11-09T00:30:16.584Z,60.90
2022-11-09T00:32:44.561Z,61.18
2022-11-09T00:35:12.028Z,61.14
2022-11-09T00:37:39.598Z,61.28
2022-11-09T00:40:08.640Z,61.27
2022-11-09T00:42:36.112Z,61.25
2022-11-09T00:45:05.450Z,61.02
2022-11-09T00:47:32.912Z,61.12
2022-11-09T00:50:00.347Z,60.99
2022-11-09T00:52:27.828Z,61.30
2022-11-09T00:54:55.276Z,61.16
2022-11-09T00:57:22.732Z,61.05
2022-11-09T00:59:51.792Z,61.54
2022-11-09T01:02:20.595Z,61.55
2022-11-09T01:04:48.127Z,61.27
2022-11-09T01:07:15.631Z,61.45
2022-11-09T01:09:43.133Z,61.25
2022-11-09T01:12:10.588Z,61.27
2022-11-09T01:14:38.172Z,61.37
2022-11-09T01:17:05.636Z,61.72
2022-11-09T01:19:34.423Z,61.35
2022-11-09T01:22:01.885Z,61.45
2022-11-09T01:24:29.347Z,61.51
2022-11-09T01:26:56.792Z,61.49
2022-11-09T01:29:24.238Z,61.27
2022-11-09T01:31:51.713Z,61.42
2022-11-09T01:34:19.163Z,61.28
2022-11-09T01:36:50.600Z,61.34
2022-11-09T01:39:19.223Z,61.46
2022-11-09T01:41:46.735Z,61.41
2022-11-09T01:44:15.422Z,61.43
2022-11-09T01:46:47.132Z,61.25
2022-11-09T01:49:19.607Z,61.55
2022-11-09T01:51:49.965Z,61.36
2022-11-09T01:54:19.110Z,61.45
2022-11-09T01:56:46.872Z,61.61
2022-11-09T01:59:15.793Z,61.53
2022-11-09T02:01:43.349Z,61.30
2022-11-09T02:04:13.521Z,61.29
2022-11-09T02:06:40.991Z,61.50
2022-11-09T02:09:17.397Z,61.49
2022-11-09T02:11:44.828Z,61.47
2022-11-09T02:14:12.289Z,61.68
2022-11-09T02:16:39.738Z,61.57
2022-11-09T02:19:07.303Z,61.55
2022-11-09T02:21:36.076Z,61.34
2022-11-09T02:24:03.507Z,61.43
2022-11-09T02:26:32.115Z,61.44
2022-11-09T02:28:59.654Z,61.42
2022-11-09T02:31:30.815Z,61.68
2022-11-09T02:34:01.987Z,61.51
2022-11-09T02:36:29.442Z,61.60
2022-11-09T02:38:58.208Z,61.57
2022-11-09T02:41:25.705Z,61.68
2022-11-09T02:43:53.473Z,61.70
2022-11-09T02:46:25.352Z,61.47
2022-11-09T02:48:52.989Z,61.72
2022-11-09T02:51:20.450Z,61.55
2022-11-09T02:53:47.950Z,61.47
2022-11-09T02:56:16.701Z,61.47
2022-11-09T02:58:44.153Z,61.68
2022-11-09T03:01:11.710Z,61.55
2022-11-09T03:03:39.202Z,61.48
2022-11-09T03:06:06.711Z,61.42
2022-11-09T03:08:34.182Z,61.45
2022-11-09T03:11:01.722Z,61.77
2022-11-09T03:13:30.487Z,61.55
2022-11-09T03:15:57.933Z,61.65
2022-11-09T03:18:25.404Z,61.62
2022-11-09T03:20:52.858Z,61.67
2022-11-09T03:23:20.583Z,61.72
2022-11-09T03:25:48.302Z,61.58
2022-11-09T03:28:15.764Z,61.26
2022-11-09T03:30:44.562Z,61.51
2022-11-09T03:33:14.149Z,61.58
2022-11-09T03:35:43.634Z,61.74
2022-11-09T03:38:11.105Z,61.48
2022-11-09T03:40:38.684Z,61.77
2022-11-09T03:43:06.137Z,61.50
2022-11-09T03:45:33.571Z,61.32
2022-11-09T03:48:02.335Z,61.56
2022-11-09T03:50:30.199Z,61.69
2022-11-09T03:52:57.789Z,61.65
2022-11-09T03:55:25.410Z,61.38
2022-11-09T03:57:52.831Z,61.49
2022-11-09T04:00:21.548Z,61.68
2022-11-09T04:02:49.039Z,61.73
2022-11-09T04:05:18.049Z,61.78
2022-11-09T04:07:48.759Z,61.51
2022-11-09T04:10:16.264Z,61.38
2022-11-09T04:12:43.739Z,61.53
2022-11-09T04:15:11.843Z,61.72
2022-11-09T04:17:39.351Z,61.57
2022-11-09T04:20:07.785Z,61.63
2022-11-09T04:22:36.577Z,61.58
2022-11-09T04:25:04.387Z,61.63
2022-11-09T04:27:31.877Z,61.56
2022-11-09T04:29:59.321Z,61.68
2022-11-09T04:32:26.760Z,61.76
2022-11-09T04:34:54.209Z,61.86
2022-11-09T04:37:21.648Z,61.86
2022-11-09T04:39:50.414Z,61.70
2022-11-09T04:42:17.860Z,61.57
2022-11-09T04:44:45.297Z,61.83
2022-11-09T04:47:12.799Z,61.92
2022-11-09T04:49:40.245Z,61.95
2022-11-09T04:52:07.689Z,61.95
2022-11-09T04:54:35.134Z,62.01
2022-11-09T04:57:04.013Z,62.05
2022-11-09T04:59:31.444Z,61.98
2022-11-09T05:01:58.928Z,61.91
2022-11-09T05:04:26.364Z,61.86
2022-11-09T05:06:53.891Z,62.08
2022-11-09T05:09:21.342Z,61.84
2022-11-09T05:11:48.828Z,61.80
2022-11-09T05:14:17.682Z,62.00
2022-11-09T05:16:45.210Z,62.03
2022-11-09T05:19:12.662Z,61.95
2022-11-09T05:21:40.119Z,62.00
2022-11-09T05:24:07.271Z,61.84
2022-11-09T05:26:35.659Z,61.93
2022-11-09T05:29:04.272Z,61.79
2022-11-09T05:31:33.113Z,61.88
2022-11-09T05:34:00.564Z,62.10
2022-11-09T05:36:28.677Z,62.12
2022-11-09T05:38:56.162Z,62.06
2022-11-09T05:41:23.650Z,62.26
2022-11-09T05:43:51.131Z,62.12
2022-11-09T05:46:18.818Z,62.14
2022-11-09T05:48:47.626Z,62.26
2022-11-09T05:51:15.386Z,62.20
2022-11-09T05:53:46.368Z,62.17
2022-11-09T05:56:14.920Z,62.25
2022-11-09T05:58:42.404Z,62.14
2022-11-09T06:01:10.599Z,62.32
2022-11-09T06:03:38.153Z,62.19
2022-11-09T06:06:09.041Z,62.17
2022-11-09T06:08:36.899Z,62.44
2022-11-09T06:11:05.869Z,62.28
2022-11-09T06:13:33.578Z,62.38
2022-11-09T06:16:01.723Z,62.46
2022-11-09T06:18:30.208Z,62.52
2022-11-09T06:21:00.035Z,62.42
2022-11-09T06:23:29.293Z,62.43
2022-11-09T06:25:58.414Z,62.45
2022-11-09T06:28:26.006Z,62.57
2022-11-09T06:30:53.574Z,62.66
2022-11-09T06:33:21.263Z,62.46
2022-11-09T06:35:54.926Z,62.65
2022-11-09T06:38:23.754Z,62.58
2022-11-09T06:40:53.355Z,62.61
2022-11-09T06:43:21.139Z,62.49
2022-11-09T06:45:48.843Z,62.63
2022-11-09T06:48:16.291Z,62.64
2022-11-09T06:50:43.752Z,62.68
2022-11-09T06:53:13.100Z,62.60
2022-11-09T06:55:43.381Z,62.80
2022-11-09T06:58:17.576Z,62.94
2022-11-09T07:00:45.223Z,62.97
2022-11-09T07:03:14.639Z,62.96
2022-11-09T07:05:42.099Z,62.77
2022-11-09T07:08:09.633Z,62.98
2022-11-09T07:10:37.324Z,63.03
2022-11-09T07:13:04.807Z,63.04
2022-11-09T07:15:34.460Z,63.01
2022-11-09T07:18:02.553Z,62.89
2022-11-09T07:20:30.279Z,63.03
2022-11-09T07:22:57.831Z,62.92
2022-11-09T07:25:27.119Z,63.09
2022-11-09T07:27:54.620Z,63.18
2022-11-09T07:30:22.097Z,63.00
2022-11-09T07:35:38.437Z,63.62
2022-11-09T07:38:05.920Z,63.65
2022-11-09T07:40:33.376Z,63.51
2022-11-09T07:43:00.861Z,63.59
2022-11-09T07:45:28.981Z,63.12
2022-11-09T07:47:58.434Z,63.36
2022-11-09T07:50:26.003Z,62.89
2022-11-09T07:52:53.461Z,63.06
2022-11-09T07:55:20.910Z,62.94
2022-11-09T07:57:48.352Z,63.17
2022-11-09T08:00:22.473Z,63.15
2022-11-09T08:02:51.025Z,63.36
2022-11-09T08:05:19.810Z,63.17
2022-11-09T08:07:47.474Z,63.08
2022-11-09T08:10:15.466Z,62.92
2022-11-09T08:12:42.948Z,63.23
2022-11-09T08:15:11.553Z,63.11
2022-11-09T08:17:38.997Z,63.04
2022-11-09T08:20:07.468Z,62.71
2022-11-09T08:22:41.511Z,62.76
2022-11-09T08:25:09.915Z,62.83
2022-11-09T08:27:40.132Z,62.75
2022-11-09T08:30:08.977Z,63.06
2022-11-09T08:32:36.772Z,63.20
2022-11-09T08:35:04.395Z,62.95
2022-11-09T08:37:31.866Z,62.96
2022-11-09T08:40:00.652Z,62.68
2022-11-09T08:42:28.102Z,63.07
2022-11-09T08:44:55.532Z,63.04
2022-11-09T08:47:22.983Z,63.00
2022-11-09T08:49:50.490Z,63.22
2022-11-09T08:52:18.246Z,63.06
2022-11-09T08:54:45.700Z,63.00
2022-11-09T08:57:14.667Z,63.13
2022-11-09T08:59:42.108Z,63.28
2022-11-09T09:02:10.151Z,63.61
2022-11-09T09:04:37.705Z,63.94
2022-11-09T09:07:05.244Z,64.20
2022-11-09T09:09:32.933Z,64.39
2022-11-09T09:12:00.426Z,64.98
2022-11-09T09:14:29.176Z,65.56
2022-11-09T09:16:56.956Z,65.80
2022-11-09T09:19:24.409Z,65.91
2022-11-09T09:21:51.893Z,65.86
2022-11-09T09:24:19.384Z,65.74
2022-11-09T09:26:46.829Z,65.65
2022-11-09T09:29:14.326Z,65.73
2022-11-09T09:31:43.698Z,65.25
2022-11-09T09:34:12.400Z,65.38
2022-11-09T09:36:44.696Z,65.43
2022-11-09T09:39:14.959Z,65.51
2022-11-09T09:41:47.153Z,65.31
2022-11-09T09:44:23.187Z,65.07
2022-11-09T09:46:54.268Z,65.11
2022-11-09T09:49:23.112Z,65.52
2022-11-09T09:51:53.752Z,65.03
2022-11-09T09:54:23.296Z,65.32
2022-11-09T09:56:51.512Z,65.83
2022-11-09T09:59:20.570Z,66.04
2022-11-09T10:01:48.830Z,65.54
2022-11-09T10:04:18.849Z,66.06
2022-11-09T10:06:58.955Z,66.17
2022-11-09T10:09:29.268Z,66.95
2022-11-09T10:12:01.078Z,67.75
2022-11-09T10:15:04.378Z,67.43
2022-11-09T10:17:38.666Z,66.63
2022-11-09T10:20:19.893Z,66.66
2022-11-09T10:22:51.483Z,66.86
2022-11-09T10:25:43.517Z,66.45
2022-11-09T10:28:18.291Z,66.22
2022-11-09T10:30:45.888Z,66.10
2022-11-09T10:33:16.551Z,66.23
2022-11-09T10:35:46.478Z,66.21
2022-11-09T10:38:15.628Z,65.99
2022-11-09T10:40:45.823Z,65.92
2022-11-09T10:43:13.904Z,65.90
2022-11-09T10:45:41.979Z,65.64
2022-11-09T10:48:10.334Z,65.71
2022-11-09T10:50:39.570Z,65.27
2022-11-09T10:53:16.040Z,65.45
2022-11-09T10:55:54.691Z,65.59
2022-11-09T10:58:27.196Z,65.80
2022-11-09T11:01:00.437Z,65.70
2022-11-09T11:03:27.918Z,65.81
2022-11-09T11:05:59.333Z,65.88
2022-11-09T11:08:33.837Z,65.98
2022-11-09T11:11:32.030Z,65.89
2022-11-09T11:14:10.475Z,66.07
2022-11-09T11:16:38.145Z,65.94
2022-11-09T11:19:05.679Z,66.11
2022-11-09T11:21:33.151Z,66.02
2022-11-09T11:24:15.346Z,65.69
2022-11-09T11:26:51.672Z,65.97
2022-11-09T11:29:38.598Z,65.85
2022-11-09T11:32:10.263Z,66.07
2022-11-09T11:34:58.622Z,65.77
2022-11-09T11:37:35.233Z,65.94
2022-11-09T11:40:05.716Z,65.76
2022-11-09T11:42:55.292Z,65.80
2022-11-09T11:45:41.465Z,66.05
2022-11-09T11:48:27.068Z,65.73
2022-11-09T11:50:57.117Z,66.02
2022-11-09T11:53:32.868Z,66.03
2022-11-09T11:56:11.705Z,66.13
2022-11-09T11:58:48.113Z,65.88
2022-11-09T12:01:25.307Z,65.96
2022-11-09T12:03:59.140Z,65.89
2022-11-09T12:06:37.175Z,66.15
2022-11-09T12:09:20.340Z,65.80
2022-11-09T12:11:57.427Z,66.04
2022-11-09T12:14:32.189Z,66.66
2022-11-09T12:17:03.730Z,66.89
2022-11-09T12:19:49.680Z,66.78
2022-11-09T12:22:22.151Z,66.91
2022-11-09T12:24:51.929Z,67.00
2022-11-09T12:27:32.556Z,67.26
2022-11-09T12:30:03.560Z,66.19
2022-11-09T12:32:35.061Z,66.15
2022-11-09T12:35:13.128Z,66.55
2022-11-09T12:37:42.647Z,65.97
2022-11-09T12:40:16.695Z,66.38
2022-11-09T12:42:47.152Z,66.17
2022-11-09T12:45:18.328Z,65.64
2022-11-09T12:47:45.928Z,65.24
2022-11-09T12:50:13.509Z,65.73
2022-11-09T12:52:41.004Z,65.78
2022-11-09T12:55:09.053Z,65.95
2022-11-09T12:57:36.519Z,65.88
2022-11-09T13:00:06.835Z,65.45
2022-11-09T13:02:35.507Z,65.35
2022-11-09T13:05:03.881Z,65.07
2022-11-09T13:07:44.616Z,64.65
2022-11-09T13:10:25.704Z,64.71
2022-11-09T13:13:04.226Z,64.56
2022-11-09T13:15:34.062Z,64.63
2022-11-09T13:18:04.115Z,64.41
2022-11-09T13:20:56.807Z,64.46
2022-11-09T13:23:55.291Z,61.26
2022-11-09T13:26:24.734Z,61.84
2022-11-09T13:29:11.014Z,62.42
2022-11-09T13:37:49.433Z,62.83
2022-11-09T13:40:44.191Z,63.07
2022-11-09T13:43:16.779Z,63.14
2022-11-09T13:45:46.025Z,63.28
2022-11-09T13:48:30.281Z,63.42
2022-11-09T13:50:58.565Z,63.58
2022-11-09T13:53:31.714Z,63.52
2022-11-09T13:55:59.175Z,63.47
2022-11-09T13:58:29.709Z,63.61
2022-11-09T14:00:57.418Z,63.75
2022-11-09T14:03:25.892Z,63.80
2022-11-09T14:05:55.003Z,63.72
2022-11-09T14:08:23.982Z,64.08
2022-11-09T14:11:42.291Z,63.96
2022-11-09T14:14:26.486Z,63.63
2022-11-09T14:16:57.285Z,63.92
2022-11-09T14:19:27.817Z,64.01
2022-11-09T14:21:55.270Z,63.86
2022-11-09T14:24:24.575Z,63.83
2022-11-09T14:27:15.107Z,63.71
2022-11-09T14:29:53.265Z,63.52
2022-11-09T14:32:29.335Z,63.57
2022-11-09T14:35:15.890Z,63.64
2022-11-09T14:37:44.509Z,63.70
2022-11-09T14:40:18.029Z,63.38
2022-11-09T14:42:48.691Z,63.58
2022-11-09T14:45:17.637Z,63.32
2022-11-09T14:47:45.703Z,63.25
2022-11-09T14:50:16.824Z,63.24
2022-11-09T14:52:44.588Z,63.31
2022-11-09T14:55:14.373Z,63.47
2022-11-09T14:57:41.843Z,63.69
2022-11-09T15:00:25.181Z,63.48
2022-11-09T15:02:52.652Z,63.69
2022-11-09T15:05:34.333Z,63.80
2022-11-09T15:08:01.828Z,63.70
2022-11-09T15:10:32.381Z,63.84
2022-11-09T15:13:01.639Z,63.82
2022-11-09T15:15:31.117Z,63.90
2022-11-09T15:17:58.585Z,63.83
2022-11-09T15:20:29.120Z,63.86
2022-11-09T15:22:57.040Z,64.15
2022-11-09T15:25:26.963Z,63.86
2022-11-09T15:28:02.508Z,63.93
2022-11-09T15:30:33.764Z,64.24
2022-11-09T15:33:01.585Z,63.92
2022-11-09T15:35:29.054Z,64.05
2022-11-09T15:37:56.975Z,64.31
2022-11-09T15:40:25.300Z,64.35
2022-11-09T15:42:52.821Z,64.14
2022-11-09T15:45:20.982Z,64.18
2022-11-09T15:47:53.585Z,64.16
2022-11-09T15:50:22.267Z,64.31
2022-11-09T15:52:49.753Z,64.22
2022-11-09T15:55:18.187Z,64.18
2022-11-09T15:57:45.905Z,64.05
2022-11-09T16:00:19.455Z,64.25
2022-11-09T16:02:48.428Z,64.37
2022-11-09T16:05:18.207Z,64.40
2022-11-09T16:07:49.260Z,64.46
2022-11-09T16:10:17.696Z,64.48
2022-11-09T16:12:46.454Z,64.37
2022-11-09T16:15:14.332Z,64.34
2022-11-09T16:17:41.771Z,64.27
2022-11-09T16:20:10.192Z,64.30
2022-11-09T16:22:38.966Z,64.24
2022-11-09T16:25:07.237Z,64.37
2022-11-09T16:27:49.555Z,64.48
2022-11-09T16:30:18.241Z,64.21
2022-11-09T16:32:45.689Z,64.29
2022-11-09T16:35:26.517Z,64.57
2022-11-09T16:37:56.530Z,64.20
2022-11-09T16:40:24.229Z,64.26
2022-11-09T16:42:52.065Z,64.41
2022-11-09T16:45:19.680Z,64.37
2022-11-09T16:47:48.626Z,63.85
2022-11-09T16:50:16.428Z,64.18
2022-11-09T16:52:45.418Z,64.41
2022-11-09T16:55:14.363Z,64.40
2022-11-09T16:57:41.803Z,64.20
2022-11-09T17:00:10.161Z,64.42
2022-11-09T17:02:37.604Z,64.18
2022-11-09T17:05:05.793Z,64.44
2022-11-09T17:07:42.158Z,64.41
2022-11-09T17:10:11.382Z,64.16
2022-11-09T17:12:40.194Z,64.16
2022-11-09T17:15:08.752Z,63.99
2022-11-09T17:17:36.281Z,64.03
2022-11-09T17:20:05.567Z,64.09
2022-11-09T17:22:33.002Z,63.99
2022-11-09T17:25:00.427Z,64.20
2022-11-09T17:27:28.022Z,63.90
2022-11-09T17:29:56.851Z,64.18
2022-11-09T17:32:27.234Z,64.16
2022-11-09T17:34:54.788Z,64.14
2022-11-09T17:37:22.641Z,64.37
2022-11-09T17:39:50.073Z,64.13
2022-11-09T17:42:17.508Z,64.07
2022-11-09T17:44:44.932Z,64.06
2022-11-09T17:47:13.700Z,64.09
2022-11-09T17:49:41.146Z,64.09
2022-11-09T17:52:08.594Z,64.13
2022-11-09T17:54:37.414Z,64.05
2022-11-09T17:57:04.939Z,63.95
2022-11-09T17:59:32.396Z,63.75
2022-11-09T18:01:59.857Z,64.22
2022-11-09T18:04:28.958Z,63.98
2022-11-09T18:06:56.427Z,63.89
2022-11-09T18:12:11.295Z,64.03
2022-11-09T18:14:38.725Z,63.88
2022-11-09T18:17:06.207Z,63.81
2022-11-09T18:19:35.026Z,63.77
2022-11-09T18:22:03.138Z,63.66
2022-11-09T18:24:32.892Z,63.38
2022-11-09T18:27:00.676Z,63.54
2022-11-09T18:29:28.088Z,63.44
2022-11-09T18:31:55.525Z,63.27
2022-11-09T18:34:22.986Z,63.33
2022-11-09T18:36:51.760Z,63.23
2022-11-09T18:39:19.292Z,63.23
2022-11-09T18:41:46.728Z,63.28
2022-11-09T18:44:14.336Z,63.36
2022-11-09T18:46:41.781Z,63.17
2022-11-09T18:49:14.113Z,63.20
2022-11-09T18:51:41.959Z,63.37
2022-11-09T18:54:10.701Z,63.12
2022-11-09T18:56:38.315Z,63.17
2022-11-09T18:59:05.805Z,63.36
2022-11-09T19:01:33.311Z,62.81
2022-11-09T19:04:01.775Z,62.79
2022-11-09T19:06:29.418Z,62.70
2022-11-09T19:09:14.357Z,62.89
2022-11-09T19:11:43.131Z,63.00
2022-11-09T19:14:10.947Z,63.21
2022-11-09T19:16:38.415Z,63.10
2022-11-09T19:19:05.875Z,63.03
2022-11-09T19:21:36.695Z,62.98
2022-11-09T19:24:04.486Z,62.78
2022-11-09T19:26:32.105Z,63.09
2022-11-09T19:29:00.904Z,62.89
2022-11-09T19:31:28.506Z,62.72
2022-11-09T19:33:55.961Z,62.84
2022-11-09T19:36:30.269Z,62.95
2022-11-09T19:38:58.292Z,62.61
2022-11-09T19:41:25.933Z,62.75
2022-11-09T19:43:55.801Z,62.98
2022-11-09T19:46:24.574Z,63.08
2022-11-09T19:48:52.002Z,62.84
2022-11-09T19:51:19.786Z,62.88
2022-11-09T19:53:50.763Z,62.99
2022-11-09T19:56:18.335Z,63.04
2022-11-09T19:58:49.093Z,62.76
2022-11-09T20:01:16.603Z,63.06
2022-11-09T20:03:45.439Z,63.17
2022-11-09T20:06:12.905Z,63.12
2022-11-09T20:08:40.758Z,62.81
2022-11-09T20:11:08.925Z,62.82
2022-11-09T20:13:37.016Z,62.71
2022-11-09T20:16:04.482Z,62.85
2022-11-09T20:18:32.045Z,62.82
2022-11-09T20:21:00.833Z,62.60
2022-11-09T20:23:28.279Z,62.66
2022-11-09T20:26:04.072Z,62.61
2022-11-09T20:28:31.504Z,62.58
2022-11-09T20:30:58.957Z,62.50
2022-11-09T20:33:26.395Z,62.49
2022-11-09T20:35:54.092Z,62.42
2022-11-09T20:38:23.418Z,62.45
2022-11-09T20:40:55.212Z,62.22
2022-11-09T20:43:22.666Z,62.58
2022-11-09T20:45:50.129Z,62.56
2022-11-09T20:48:46.546Z,62.43
2022-11-09T20:51:05.363Z,62.32
2022-11-09T20:53:34.325Z,62.43
2022-11-09T20:56:01.836Z,62.32
2022-11-09T20:58:29.289Z,62.31
2022-11-09T21:01:03.779Z,62.24
2022-11-09T21:03:31.299Z,62.44
2022-11-09T21:05:59.298Z,62.40
2022-11-09T21:08:27.045Z,62.39
2022-11-09T21:10:55.808Z,62.34
2022-11-09T21:13:23.294Z,62.28
2022-11-09T21:15:50.729Z,62.59
2022-11-09T21:18:18.303Z,62.63
2022-11-09T21:20:45.895Z,62.45
2022-11-09T21:23:30.733Z,62.49
2022-11-09T21:26:18.194Z,62.35
2022-11-09T21:29:05.789Z,62.35
2022-11-09T21:31:33.248Z,62.36
2022-11-09T21:34:00.688Z,62.32
2022-11-09T21:36:28.129Z,62.40
2022-11-09T21:38:55.571Z,62.33
2022-11-09T21:41:39.437Z,62.30
2022-11-09T21:44:07.827Z,62.51
2022-11-09T21:46:35.612Z,62.34
2022-11-09T21:49:03.151Z,62.31
2022-11-09T21:51:30.704Z,62.39
2022-11-09T21:53:58.140Z,62.29
2022-11-09T21:56:26.920Z,62.22
2022-11-09T21:58:54.376Z,62.20
2022-11-09T22:01:21.898Z,62.38
2022-11-09T22:03:49.562Z,62.34
2022-11-09T22:06:17.129Z,62.38
2022-11-09T22:08:44.686Z,62.17
2022-11-09T22:11:12.926Z,62.38
2022-11-09T22:13:59.629Z,62.24
2022-11-09T22:16:27.568Z,62.25
2022-11-09T22:19:27.162Z,62.56
2022-11-09T22:21:54.624Z,62.40
2022-11-09T22:24:22.064Z,62.53
2022-11-09T22:26:49.547Z,62.53
2022-11-09T22:29:18.521Z,62.51
2022-11-09T22:31:45.981Z,62.56
2022-11-09T22:34:13.421Z,62.40
2022-11-09T22:36:40.843Z,62.67
2022-11-09T22:39:08.315Z,62.53
2022-11-09T22:41:35.739Z,62.43
2022-11-09T22:44:03.175Z,62.40
2022-11-09T22:46:31.998Z,62.47
2022-11-09T22:48:59.450Z,62.59
2022-11-09T22:51:26.939Z,62.46
2022-11-09T22:53:54.377Z,62.49
2022-11-09T22:56:21.910Z,62.24
2022-11-09T22:58:51.921Z,62.37
2022-11-09T23:01:20.547Z,62.34
2022-11-09T23:03:49.340Z,62.44
2022-11-09T23:06:19.088Z,62.30
2022-11-09T23:08:46.716Z,62.38
2022-11-09T23:11:14.875Z,62.35
2022-11-09T23:13:42.385Z,62.33
2022-11-09T23:16:10.751Z,62.44
2022-11-09T23:18:56.566Z,62.31
2022-11-09T23:21:26.943Z,62.50
2022-11-09T23:23:54.951Z,62.41
2022-11-09T23:26:22.581Z,62.43
2022-11-09T23:28:50.085Z,62.52
2022-11-09T23:31:24.030Z,62.45
2022-11-09T23:33:52.153Z,62.63
2022-11-09T23:36:19.901Z,62.59
2022-11-09T23:38:48.681Z,62.51
2022-11-09T23:41:16.579Z,62.61
2022-11-09T23:43:48.898Z,62.46
2022-11-09T23:46:17.289Z,62.38
2022-11-09T23:48:44.802Z,62.57
2022-11-09T23:51:12.299Z,62.57
2022-11-09T23:53:39.933Z,62.41
2022-11-09T23:56:10.062Z,62.60
2022-11-09T23:58:37.327Z,62.57
